Terminal Aerodrome Forecast
Issued by NWS Denver/Boulder, CO

Home | Current Version | Previous Version | Text Only | Print | Product List | Glossary On
Versions: 1 2 3 4 5 6 7 8 9 10 11 12 13 14 15 16 17 18 19 20 21 22 23 24 25 26 27 28 29 30 31 32 33 34 35 36 37 38 39 40 41
000
FTUS45 KBOU 281727
TAFDEN
TAF
KDEN 281727Z 2818/0124 14009KT P6SM SCT040 BKN060 OVC090
      TEMPO 2819/2820 -SHSN BKN030
     FM282000 11011KT 5SM -SHSN SCT015 OVC030
      TEMPO 2821/2824 3/4SM -SHSN BKN009
     FM010100 12006KT P6SM BKN030 BKN070
     FM010300 21008KT P6SM SCT140
     FM010500 26012KT P6SM SCT220
     FM011200 24011KT P6SM SCT220
     FM011900 28012KT P6SM FEW120 SCT220=

USA.gov is the U.S. government's official web portal to all federal, state and local government web resources and services.